METAR AND TAF INFORMATION
METAR FOR UARR
ADDS - METARS form results

(1216 UTC 17 June 2019)
Data provider http://aviationweather.gov/metar/data/
 
METAR text: UARR 171200Z 33004MPS 290V020 CAVOK 26/06 Q1011 R04/CLRD70 NOSIG RMK QFE755/1007
Conditions at: UARR (URALSK , KZ) observed 1200 UTC 17 June 2019
Temperature: 26.0°C (79°F)
Dewpoint: 6.0°C (43°F) [RH = 28%]
Pressure (altimeter): 29.85 inches Hg (1011.0 mb)
Winds: from the NNW (330 degrees) at 9 MPH (8 knots; 4.1 m/s)
Visibility: 6 or more miles (10+ km)
Ceiling: ceiling and visibility are OK
Clouds: unknown
Weather: no significant weather observed at this time

METAR text: UARR 171130Z 30005MPS 250V360 CAVOK 26/05 Q1011 R04/CLRD70 NOSIG RMK QFE755/1007
Conditions at: UARR (URALSK , KZ) observed 1130 UTC 17 June 2019
Temperature: 26.0°C (79°F)
Dewpoint: 5.0°C (41°F) [RH = 26%]
Pressure (altimeter): 29.85 inches Hg (1011.0 mb)
Winds: from the WNW (300 degrees) at 12 MPH (10 knots; 5.1 m/s)
Visibility: 6 or more miles (10+ km)
Ceiling: ceiling and visibility are OK
Clouds: unknown
Weather: no significant weather observed at this time

Forecast for: UARR (URALSK , KZ)
Text: TAF UARR 171101Z 1712/1721 34005MPS 9999 SCT033
Forecast period: 1200 to 2100 UTC 17 June 2019
Forecast type: FROM: standard forecast or significant change
Winds: from the NNW (340 degrees) at 12 MPH (10 knots; 5.1 m/s)
Visibility: 6 or more miles 10+ km)
Ceiling: at least 12,000 feet AGL
Clouds: scattered clouds at 3300 feet AGL
Weather: no significant weather forecast for this period
Text: TEMPO 1718/1721 VRB02MPS
Forecast period: 1800 to 2100 UTC 17 June 2019
Forecast type: TEMPORARY: The following changes expected for less than half the time period
Winds: variable direction winds at 5 MPH (4 knots; 2.1 m/s)
Visibility: missing
Ceiling: unknown
Clouds: missing
Weather: no significant weather forecast for this period

 AIRPORT MAP

 RUNWAY INFORMATION

 AIRPORT FREQUENCIES
Type TWR Name TWR Frequency 119.7 MHZ

 AIRPORT NEAR NAVIGATION AIDS
Type NDB Name Uralsk Frequency 442 KHZ
Type NDB Name Uralsk Frequency 442 KHZ
Type VOR-DME Name Uralsk Frequency 114200 KHZ



2018 Air Astana Virtual Airline